Time;durP1;ratioP1;P1;durP2;ratioP2;P2;SDS_P1;SDS_P2;PMS_P1;PMS_P2;Temp;Humidity;BMP_temperature;BMP_pressure;BME280_temperature;BME280_humidity;BME280_pressure;Samples;Min_cycle;Max_cycle;Signal;HPM_P1;HPM_P2
2022/06/25 00:01:13;;;;;;;11.60;7.20;;;17.60;99.90;;;;;;5007261;28;20270;-75
2022/06/25 00:03:40;;;;;;;9.00;6.97;;;17.60;99.90;;;;;;5001783;28;20302;-73
2022/06/25 00:06:06;;;;;;;9.50;7.57;;;17.70;99.90;;;;;;4991645;28;20442;-75
2022/06/25 00:08:33;;;;;;;8.77;7.53;;;17.70;99.90;;;;;;4989447;28;20922;-76
2022/06/25 00:13:34;;;;;;;11.80;7.37;;;17.70;99.90;;;;;;5079605;22;20534;-75
2022/06/25 00:16:01;;;;;;;10.63;7.50;;;17.70;99.90;;;;;;5024264;28;20445;-74
2022/06/25 00:18:27;;;;;;;11.00;7.70;;;17.70;99.90;;;;;;4991298;28;20567;-75
2022/06/25 00:20:53;;;;;;;10.83;7.30;;;17.70;99.90;;;;;;4992508;28;20498;-72
2022/06/25 00:23:18;;;;;;;8.90;6.93;;;17.70;99.90;;;;;;4994239;28;20433;-75
2022/06/25 00:25:44;;;;;;;10.93;7.97;;;17.70;99.90;;;;;;5010781;28;20182;-75
2022/06/25 00:28:10;;;;;;;9.40;7.33;;;17.80;99.90;;;;;;5288974;22;1059626;-75
2022/06/25 00:30:37;;;;;;;8.43;7.10;;;17.60;99.90;;;;;;5228871;22;20238;-76
2022/06/25 00:33:03;;;;;;;8.47;7.23;;;17.60;99.90;;;;;;5309261;22;20232;-73
2022/06/25 00:35:29;;;;;;;9.00;8.10;;;17.60;99.90;;;;;;4990601;28;20506;-76
2022/06/25 00:37:55;;;;;;;9.90;7.80;;;17.60;99.90;;;;;;5021372;28;20499;-75
2022/06/25 00:45:31;;;;;;;10.27;7.80;;;;;;;;;;5393750;22;20986;-75
2022/06/25 00:47:57;;;;;;;11.30;7.20;;;17.50;99.90;;;;;;5261106;22;20507;-72
2022/06/25 00:58:00;;;;;;;7.33;6.60;;;17.60;99.90;;;;;;5212576;22;20572;-77
2022/06/25 01:02:59;;;;;;;14.10;6.10;;;17.60;99.90;;;;;;5130416;22;20496;-73
2022/06/25 01:05:24;;;;;;;7.70;6.00;;;17.60;99.90;;;;;;4990821;28;20495;-74
2022/06/25 01:07:51;;;;;;;11.80;6.30;;;17.60;99.90;;;;;;5013417;28;20726;-76
2022/06/25 01:12:47;;;;;;;7.27;6.03;;;17.50;99.90;;;;;;5088560;22;20496;-75
2022/06/25 01:15:17;;;;;;;9.23;5.50;;;17.50;99.90;;;;;;4991196;28;20993;-75
2022/06/25 01:17:45;;;;;;;7.70;6.13;;;17.50;99.90;;;;;;4993111;28;20669;-75
2022/06/25 01:20:12;;;;;;;8.63;5.53;;;17.50;99.90;;;;;;4996997;28;20524;-75
2022/06/25 01:22:38;;;;;;;7.07;6.37;;;17.50;99.90;;;;;;5013500;28;20410;-76
2022/06/25 01:25:07;;;;;;;6.30;5.63;;;17.40;99.90;;;;;;4996152;28;20421;-76
2022/06/25 01:27:33;;;;;;;12.03;5.57;;;17.40;99.90;;;;;;4995340;28;20210;-73
2022/06/25 01:29:59;;;;;;;8.53;5.97;;;17.30;99.90;;;;;;5014079;28;20435;-75
2022/06/25 01:32:25;;;;;;;6.97;6.27;;;17.40;99.90;;;;;;5014715;28;20413;-75
2022/06/25 01:34:50;;;;;;;7.80;5.87;;;17.40;99.90;;;;;;5119629;22;20997;-76
2022/06/25 01:37:16;;;;;;;7.17;6.40;;;17.30;99.90;;;;;;5174121;23;20235;-75
2022/06/25 01:39:41;;;;;;;9.27;5.93;;;17.30;99.90;;;;;;5007310;28;20201;-76
2022/06/25 01:42:58;;;;;;;14.07;6.30;;;17.30;99.90;;;;;;5017326;28;20218;-76
2022/06/25 01:44:52;;;;;;;8.10;6.70;;;17.30;99.90;;;;;;5021107;28;20726;-77
2022/06/25 01:47:18;;;;;;;8.23;6.50;;;17.60;99.90;;;;;;5017655;28;20532;-76
2022/06/25 01:49:43;;;;;;;10.50;5.23;;;17.30;99.90;;;;;;5012362;28;20648;-76
2022/06/25 01:52:09;;;;;;;20.83;7.43;;;17.10;99.90;;;;;;5015212;28;20664;-75
2022/06/25 01:54:34;;;;;;;10.20;6.60;;;17.10;99.90;;;;;;5023065;28;20193;-73
2022/06/25 01:57:00;;;;;;;9.80;6.77;;;;;;;;;;5465261;22;20526;-72
2022/06/25 01:59:26;;;;;;;6.57;5.87;;;17.00;99.90;;;;;;5131787;22;20380;-72
2022/06/25 02:01:51;;;;;;;10.50;5.93;;;16.90;99.90;;;;;;4992751;28;20257;-74
2022/06/25 02:04:17;;;;;;;18.03;7.70;;;16.90;99.90;;;;;;5175980;22;20244;-75
2022/06/25 02:06:42;;;;;;;6.60;5.90;;;16.90;99.90;;;;;;5204871;23;20277;31
2022/06/25 02:09:07;;;;;;;11.43;6.53;;;17.40;99.90;;;;;;5056234;22;20661;-76
2022/06/25 02:11:33;;;;;;;8.00;6.37;;;17.00;99.90;;;;;;5006655;28;20210;-76
2022/06/25 02:13:59;;;;;;;6.63;5.80;;;17.00;99.90;;;;;;5020709;28;20176;-73
2022/06/25 02:19:06;;;;;;;6.33;4.70;;;17.00;99.90;;;;;;5022045;22;20226;-73
2022/06/25 02:21:32;;;;;;;5.60;5.10;;;17.00;99.90;;;;;;4991220;28;21005;-74
2022/06/25 02:23:57;;;;;;;6.53;5.07;;;17.00;99.90;;;;;;4992823;28;20728;-75
2022/06/25 02:26:23;;;;;;;5.60;5.03;;;17.00;99.90;;;;;;4996191;28;20249;-75
2022/06/25 02:28:48;;;;;;;7.10;4.67;;;17.00;99.90;;;;;;5001346;28;20178;-75
2022/06/25 02:31:14;;;;;;;9.53;5.07;;;17.00;99.90;;;;;;5022603;28;20187;-75
2022/06/25 02:33:40;;;;;;;5.33;4.20;;;17.10;99.90;;;;;;5000610;28;20233;-74
2022/06/25 02:36:05;;;;;;;5.43;3.93;;;17.00;99.90;;;;;;5023364;28;20218;-74
2022/06/25 02:38:31;;;;;;;5.63;4.63;;;17.10;99.90;;;;;;5008128;28;20213;-72
2022/06/25 02:40:56;;;;;;;7.43;4.53;;;17.10;99.90;;;;;;5007673;28;20182;-72
2022/06/25 02:43:22;;;;;;;11.63;5.13;;;17.10;99.90;;;;;;5133005;22;20591;-75
2022/06/25 02:45:48;;;;;;;7.33;5.10;;;16.60;99.90;;;;;;5205630;22;20217;-75
2022/06/25 02:50:41;;;;;;;9.30;4.83;;;17.10;99.90;;;;;;5114966;22;20237;-75
2022/06/25 03:00:56;;;;;;;7.63;5.30;;;17.00;99.90;;;;;;5176232;22;20527;-75
2022/06/25 03:03:22;;;;;;;6.60;5.40;;;17.00;99.90;;;;;;5329779;22;20481;-72
2022/06/25 03:05:47;;;;;;;6.00;5.40;;;;;;;;;;5354910;22;20804;-72
2022/06/25 03:08:14;;;;;;;6.70;5.83;;;;;;;;;;5355333;22;20668;-73
2022/06/25 03:15:45;;;;;;;7.07;5.37;;;;;;;;;;5323556;22;20660;-73
2022/06/25 03:23:19;;;;;;;8.53;4.60;;;16.80;99.90;;;;;;5336973;22;20647;-72
2022/06/25 03:25:45;;;;;;;6.73;5.03;;;16.80;99.90;;;;;;5185566;22;20878;-72
2022/06/25 03:45:53;;;;;;;6.00;5.33;;;16.80;99.90;;;;;;5247345;22;20504;-76
2022/06/25 03:48:18;;;;;;;5.43;4.70;;;16.80;99.90;;;;;;5322694;22;20505;-72
2022/06/25 03:50:44;;;;;;;7.53;5.10;;;16.80;99.90;;;;;;5219438;22;20260;31
2022/06/25 03:53:09;;;;;;;7.10;4.80;;;16.90;99.90;;;;;;5092752;22;20202;-74
2022/06/25 03:55:35;;;;;;;10.87;4.93;;;16.90;99.90;;;;;;5186292;22;20226;-73
2022/06/25 03:58:00;;;;;;;4.70;4.30;;;17.00;99.90;;;;;;5230350;22;20209;-76
2022/06/25 04:00:26;;;;;;;8.73;4.70;;;17.00;99.90;;;;;;5062540;22;20289;-73
2022/06/25 04:02:51;;;;;;;7.50;4.97;;;17.10;99.90;;;;;;5173915;23;20219;-77
2022/06/25 04:05:17;;;;;;;10.57;5.17;;;17.10;99.90;;;;;;5349217;22;21086;-72
2022/06/25 04:17:49;;;;;;;7.87;5.00;;;17.20;99.90;;;;;;5387741;22;20516;-75
2022/06/25 04:20:14;;;;;;;9.00;5.30;;;;;;;;;;5679691;22;20821;31
2022/06/25 04:35:24;;;;;;;4.90;4.40;;;17.40;99.90;;;;;;5040664;23;20872;-73
2022/06/25 04:37:50;;;;;;;9.47;5.00;;;17.50;99.90;;;;;;5011745;28;20976;-72
2022/06/25 04:40:15;;;;;;;8.53;4.83;;;17.50;99.90;;;;;;5013586;28;20173;-72
2022/06/25 04:42:41;;;;;;;7.13;5.30;;;17.50;99.90;;;;;;5020705;28;20213;-75
2022/06/25 04:45:07;;;;;;;14.37;5.40;;;17.50;99.90;;;;;;5013503;28;20230;-75
2022/06/25 04:47:32;;;;;;;9.00;5.40;;;17.60;99.90;;;;;;5010834;28;20253;-75
2022/06/25 04:49:58;;;;;;;5.90;5.20;;;17.60;99.90;;;;;;5009158;28;20178;-76
2022/06/25 04:52:23;;;;;;;6.03;5.10;;;17.60;99.90;;;;;;5010229;28;20277;-75
2022/06/25 04:54:49;;;;;;;10.03;5.30;;;17.60;99.90;;;;;;5010124;28;20264;-75
2022/06/25 04:57:14;;;;;;;9.17;5.10;;;17.70;99.90;;;;;;4993300;28;20174;-75
2022/06/25 04:59:40;;;;;;;7.97;4.73;;;17.70;99.90;;;;;;5008446;28;20187;-75
2022/06/25 05:02:05;;;;;;;7.20;4.70;;;17.70;99.90;;;;;;5009124;28;20231;-75
2022/06/25 05:04:31;;;;;;;9.00;5.03;;;18.00;99.90;;;;;;5009456;28;20206;-75
2022/06/25 05:06:58;;;;;;;11.90;5.30;;;17.70;99.90;;;;;;4992622;28;20166;-75
2022/06/25 05:09:24;;;;;;;8.20;5.60;;;17.80;99.90;;;;;;5017188;28;20178;-75
2022/06/25 05:11:51;;;;;;;7.80;5.30;;;17.90;99.90;;;;;;5005054;28;20468;-75
2022/06/25 05:14:16;;;;;;;10.03;5.70;;;17.90;99.90;;;;;;5010119;28;20520;-74
2022/06/25 05:16:42;;;;;;;8.73;5.80;;;17.90;99.90;;;;;;5008052;28;20449;-75
2022/06/25 05:19:07;;;;;;;9.60;5.60;;;18.00;99.90;;;;;;5009487;28;20340;-75
2022/06/25 05:21:34;;;;;;;6.90;5.83;;;18.00;99.90;;;;;;5005816;28;20270;-75
2022/06/25 05:23:59;;;;;;;7.70;5.57;;;18.00;99.90;;;;;;5010944;28;20230;-75
2022/06/25 05:26:25;;;;;;;7.67;5.13;;;18.00;99.90;;;;;;4991588;28;20499;-75
2022/06/25 05:28:51;;;;;;;7.80;5.53;;;18.10;99.90;;;;;;5010345;28;20305;-75
2022/06/25 05:31:16;;;;;;;8.97;5.30;;;18.10;99.90;;;;;;5009084;28;20163;-74
2022/06/25 05:33:42;;;;;;;7.20;5.50;;;18.20;99.90;;;;;;5001431;28;20297;-75
2022/06/25 05:36:07;;;;;;;13.60;6.23;;;18.20;99.90;;;;;;4991188;28;20772;-75
2022/06/25 05:38:33;;;;;;;8.40;4.70;;;18.20;99.90;;;;;;5008871;28;20680;-75
2022/06/25 05:40:58;;;;;;;5.37;4.70;;;18.30;99.90;;;;;;5029099;28;20162;-74
2022/06/25 05:43:24;;;;;;;8.23;4.30;;;18.40;99.90;;;;;;5008861;28;20301;-75
2022/06/25 05:45:49;;;;;;;5.20;4.00;;;18.50;99.90;;;;;;5008125;28;20190;-75
2022/06/25 05:48:15;;;;;;;5.90;4.70;;;18.40;99.90;;;;;;4989632;28;20213;-75
2022/06/25 05:50:40;;;;;;;6.20;4.37;;;18.60;99.90;;;;;;5009407;28;20588;-75
2022/06/25 05:53:06;;;;;;;5.30;4.10;;;18.80;99.90;;;;;;5008398;28;20193;-75
2022/06/25 05:55:31;;;;;;;10.40;4.70;;;18.80;99.90;;;;;;5008406;28;20194;-74
2022/06/25 05:57:58;;;;;;;8.50;4.60;;;18.80;99.90;;;;;;5010402;28;20202;-75
2022/06/25 06:00:26;;;;;;;6.20;4.30;;;18.80;99.90;;;;;;5008912;28;20170;-75
2022/06/25 06:02:52;;;;;;;8.43;4.83;;;18.80;99.90;;;;;;5008891;28;20764;-75
2022/06/25 06:05:18;;;;;;;7.57;4.60;;;18.90;99.90;;;;;;5006162;28;20617;-75
2022/06/25 06:07:43;;;;;;;7.87;4.43;;;19.00;99.90;;;;;;5010465;28;20507;-75
2022/06/25 06:10:09;;;;;;;6.20;4.10;;;19.10;99.90;;;;;;5022760;28;20170;-75
2022/06/25 06:12:35;;;;;;;5.23;3.97;;;19.00;99.90;;;;;;4991201;28;20236;-75
2022/06/25 06:15:00;;;;;;;5.40;4.20;;;19.10;99.90;;;;;;5008548;28;20198;-75
2022/06/25 06:17:26;;;;;;;7.43;4.23;;;19.10;99.90;;;;;;5007973;28;20257;-75
2022/06/25 06:19:51;;;;;;;4.43;4.03;;;19.30;99.90;;;;;;5007645;28;20551;-75
2022/06/25 06:22:17;;;;;;;5.60;3.73;;;19.30;99.90;;;;;;5003295;28;20178;-75
2022/06/25 06:24:42;;;;;;;4.60;3.70;;;19.40;99.90;;;;;;4989248;28;20673;-75
2022/06/25 06:27:09;;;;;;;6.47;3.87;;;19.60;99.90;;;;;;5009743;28;20178;-75
2022/06/25 06:29:34;;;;;;;4.47;3.80;;;19.60;99.90;;;;;;5007528;28;20178;-75
2022/06/25 06:32:00;;;;;;;6.97;3.70;;;19.70;99.90;;;;;;5000785;28;20471;-76
2022/06/25 06:34:25;;;;;;;5.20;3.50;;;19.50;99.90;;;;;;5008453;28;20645;-75
2022/06/25 06:36:51;;;;;;;5.37;3.87;;;19.70;99.90;;;;;;4990792;28;20200;-75
2022/06/25 06:39:17;;;;;;;3.27;2.87;;;19.70;99.90;;;;;;5013355;28;20209;-75
2022/06/25 06:41:42;;;;;;;7.70;3.70;;;19.80;99.90;;;;;;5010509;28;20279;-75
2022/06/25 06:44:08;;;;;;;6.10;3.30;;;19.90;99.80;;;;;;5019135;28;20618;-75
2022/06/25 06:46:33;;;;;;;5.77;3.30;;;19.90;99.90;;;;;;5008134;28;20265;-75
2022/06/25 06:48:59;;;;;;;5.30;3.30;;;20.00;99.90;;;;;;5007434;28;20652;-76
2022/06/25 06:51:24;;;;;;;5.53;3.33;;;20.10;99.90;;;;;;5007098;28;20186;-75
2022/06/25 06:53:50;;;;;;;6.43;3.40;;;20.30;94.10;;;;;;5009190;28;20246;-75
2022/06/25 06:56:15;;;;;;;3.80;3.13;;;20.30;92.60;;;;;;4990089;28;20217;-75
2022/06/25 06:58:41;;;;;;;4.50;3.40;;;20.50;96.40;;;;;;5008364;28;20458;-75
2022/06/25 07:01:06;;;;;;;9.40;3.40;;;20.50;85.70;;;;;;5006247;28;20189;-75
2022/06/25 07:03:32;;;;;;;4.47;3.47;;;20.50;81.30;;;;;;5006643;28;20210;-76
2022/06/25 07:05:57;;;;;;;4.80;3.57;;;20.50;86.20;;;;;;5008143;28;20189;-75
2022/06/25 07:08:23;;;;;;;4.10;3.00;;;20.70;85.20;;;;;;5004830;28;20189;-75
2022/06/25 07:10:49;;;;;;;9.17;3.77;;;20.90;83.30;;;;;;5024883;28;20209;-75
2022/06/25 07:13:14;;;;;;;8.60;3.90;;;21.00;72.30;;;;;;5005930;28;20241;-75
2022/06/25 07:15:40;;;;;;;4.57;3.10;;;21.10;68.50;;;;;;5008268;28;20649;-75
2022/06/25 07:18:06;;;;;;;5.93;3.50;;;21.20;68.60;;;;;;4989614;28;20201;-76
2022/06/25 07:20:31;;;;;;;4.73;3.40;;;21.40;61.40;;;;;;4989724;28;20646;-75
2022/06/25 07:22:57;;;;;;;5.33;3.50;;;21.60;55.60;;;;;;4989533;28;20461;-75
2022/06/25 07:25:22;;;;;;;5.30;3.30;;;21.50;47.70;;;;;;5006999;28;20285;-75
2022/06/25 07:27:48;;;;;;;5.97;3.40;;;21.70;57.50;;;;;;5009105;28;20176;-75
2022/06/25 07:30:14;;;;;;;4.40;2.93;;;21.90;48.00;;;;;;4987848;28;20185;-75
2022/06/25 07:32:40;;;;;;;3.40;2.73;;;22.00;48.00;;;;;;5006367;28;20559;-73
2022/06/25 07:35:06;;;;;;;5.10;3.10;;;22.20;48.40;;;;;;5007108;28;20206;-72
2022/06/25 07:37:32;;;;;;;4.63;3.33;;;22.20;40.70;;;;;;5006692;28;20369;-73
2022/06/25 07:39:57;;;;;;;4.27;2.90;;;22.40;46.00;;;;;;5011393;28;20504;-75
2022/06/25 07:42:23;;;;;;;3.40;2.80;;;22.50;32.70;;;;;;5021371;28;20182;-75
2022/06/25 07:44:49;;;;;;;5.43;3.00;;;22.60;35.50;;;;;;5007028;28;20216;-75
2022/06/25 07:47:14;;;;;;;5.73;3.13;;;22.70;31.70;;;;;;4989841;28;20436;-75
2022/06/25 07:52:24;;;;;;;3.80;2.90;;;22.60;30.70;;;;;;5006221;28;20256;-75
2022/06/25 07:54:49;;;;;;;3.77;3.00;;;22.90;32.10;;;;;;5008258;28;20931;-75
2022/06/25 07:57:16;;;;;;;4.93;2.90;;;23.20;25.60;;;;;;5006151;28;20610;-75
2022/06/25 07:59:42;;;;;;;4.40;2.50;;;23.50;20.40;;;;;;5006206;28;20641;-76
2022/06/25 08:02:07;;;;;;;5.23;2.87;;;23.80;22.00;;;;;;5007872;28;20421;-75
2022/06/25 08:04:33;;;;;;;4.50;2.87;;;24.10;16.50;;;;;;5008110;28;20255;-75
2022/06/25 08:06:58;;;;;;;5.10;3.00;;;24.20;17.30;;;;;;5007394;28;20613;-76
2022/06/25 08:09:24;;;;;;;4.30;2.63;;;24.50;12.80;;;;;;5006536;28;20247;-75
2022/06/25 08:11:50;;;;;;;5.40;3.10;;;24.50;6.00;;;;;;5013538;28;20257;-75
2022/06/25 08:14:15;;;;;;;3.63;2.83;;;24.40;5.60;;;;;;5009723;28;20229;-75
2022/06/25 08:16:41;;;;;;;3.93;2.80;;;24.20;5.00;;;;;;5009174;28;20188;-75
2022/06/25 08:19:06;;;;;;;6.93;3.00;;;24.40;1.00;;;;;;5010468;28;20656;-75
2022/06/25 08:21:32;;;;;;;3.80;2.70;;;24.60;4.90;;;;;;5010952;28;20313;-75
2022/06/25 08:23:57;;;;;;;6.70;2.93;;;24.90;4.60;;;;;;4989032;28;20195;-71
2022/06/25 08:26:23;;;;;;;3.93;2.80;;;25.10;1.00;;;;;;5008830;28;20167;-72
2022/06/25 08:28:49;;;;;;;3.63;2.30;;;25.10;1.00;;;;;;4991013;28;20625;-72
2022/06/25 08:31:15;;;;;;;4.97;2.50;;;24.90;1.00;;;;;;5010333;28;20400;-72
2022/06/25 08:33:41;;;;;;;4.83;2.77;;;24.40;1.00;;;;;;4992701;28;20272;-72
2022/06/25 08:36:07;;;;;;;4.27;2.70;;;24.20;1.00;;;;;;5008591;28;20264;-73
2022/06/25 08:38:33;;;;;;;4.00;2.83;;;25.20;1.00;;;;;;4992072;28;20890;-72
2022/06/25 08:41:00;;;;;;;10.13;2.80;;;24.60;1.00;;;;;;5022759;28;20304;-71
2022/06/25 08:43:26;;;;;;;6.00;2.90;;;24.50;1.30;;;;;;5013111;28;20544;-72
2022/06/25 08:45:55;;;;;;;3.90;2.70;;;25.00;1.00;;;;;;4990261;28;20945;-72
2022/06/25 08:48:23;;;;;;;4.17;2.60;;;25.30;1.00;;;;;;5005650;28;20435;-72
2022/06/25 08:50:50;;;;;;;4.80;2.80;;;25.80;1.00;;;;;;5010789;28;20506;-72
2022/06/25 08:53:16;;;;;;;8.73;2.67;;;27.10;1.00;;;;;;5007872;28;20841;-72
2022/06/25 08:55:44;;;;;;;4.33;2.70;;;27.10;1.00;;;;;;5006913;28;20500;-72
2022/06/25 08:58:11;;;;;;;4.93;2.20;;;27.30;1.00;;;;;;5009929;28;20467;-72
2022/06/25 09:00:39;;;;;;;3.67;2.60;;;27.60;1.00;;;;;;4996350;28;20892;-73
2022/06/25 09:03:06;;;;;;;4.60;2.40;;;28.50;1.00;;;;;;5003019;28;20438;-72
2022/06/25 09:05:37;;;;;;;4.30;2.60;;;28.40;1.00;;;;;;4991850;28;20483;-73
2022/06/25 09:08:06;;;;;;;7.30;2.57;;;27.90;1.00;;;;;;5009942;28;20500;-74
2022/06/25 09:10:33;;;;;;;4.70;2.50;;;27.20;1.00;;;;;;5025905;28;20420;-74
2022/06/25 09:13:00;;;;;;;4.70;2.60;;;27.60;1.00;;;;;;5000603;28;20427;-74
2022/06/25 09:15:40;;;;;;;5.47;2.50;;;27.80;1.00;;;;;;5017898;28;20888;-73
2022/06/25 09:18:17;;;;;;;6.20;2.60;;;27.40;1.00;;;;;;5002912;28;20472;-74
2022/06/25 09:20:58;;;;;;;3.23;2.33;;;28.20;1.00;;;;;;5010741;28;20491;-74
2022/06/25 09:23:24;;;;;;;4.40;2.40;;;28.40;1.00;;;;;;4991682;28;20651;-74
2022/06/25 09:26:02;;;;;;;4.77;2.57;;;28.50;1.00;;;;;;4993112;28;20557;-75
2022/06/25 09:28:32;;;;;;;6.50;2.50;;;29.30;1.00;;;;;;5009988;28;20514;-74
2022/06/25 09:30:58;;;;;;;7.10;2.87;;;29.40;1.00;;;;;;5008922;28;20420;-75
2022/06/25 09:33:25;;;;;;;5.37;2.40;;;29.70;1.00;;;;;;5009639;28;20524;-74
2022/06/25 09:35:52;;;;;;;5.83;2.53;;;29.30;1.00;;;;;;4988385;28;20187;-75
2022/06/25 09:38:18;;;;;;;3.43;2.50;;;28.70;1.00;;;;;;5003170;28;20691;-74
2022/06/25 09:40:56;;;;;;;5.10;2.33;;;29.00;1.00;;;;;;5025820;28;20391;-74
2022/06/25 09:43:23;;;;;;;4.17;2.40;;;29.20;1.00;;;;;;5012375;28;20232;-73
2022/06/25 09:45:52;;;;;;;4.28;2.30;;;28.80;1.00;;;;;;5007576;28;20945;-74
2022/06/25 09:48:18;;;;;;;4.83;2.40;;;28.70;1.00;;;;;;5010338;28;20182;-74
2022/06/25 09:51:03;;;;;;;4.30;2.40;;;28.30;1.00;;;;;;5009904;28;20546;-74
2022/06/25 09:53:28;;;;;;;2.83;2.20;;;28.00;1.00;;;;;;5010032;28;20573;-73
2022/06/25 09:55:54;;;;;;;5.47;2.70;;;27.60;1.00;;;;;;5007426;28;20253;-74
2022/06/25 09:58:21;;;;;;;3.40;2.30;;;27.30;1.00;;;;;;4990859;28;20297;-75
2022/06/25 10:00:46;;;;;;;5.20;2.40;;;27.40;1.00;;;;;;5008975;28;20174;-75
2022/06/25 10:03:13;;;;;;;4.20;2.20;;;28.50;1.00;;;;;;5009631;28;20186;-77
2022/06/25 10:05:40;;;;;;;3.90;2.40;;;30.10;1.00;;;;;;5009644;28;20174;-75
2022/06/25 10:08:10;;;;;;;3.20;2.25;;;31.80;1.00;;;;;;5009560;28;20178;-76
2022/06/25 10:10:45;;;;;;;3.53;2.20;;;33.10;1.00;;;;;;5017635;28;20272;-75
2022/06/25 10:13:11;;;;;;;5.20;2.08;;;34.10;1.00;;;;;;4997221;28;20176;-75
2022/06/25 10:15:38;;;;;;;3.85;1.90;;;35.10;1.00;;;;;;5008121;28;20541;-75
2022/06/25 10:18:09;;;;;;;2.97;2.00;;;36.00;1.00;;;;;;5010046;28;20222;-75
2022/06/25 10:20:36;;;;;;;5.68;1.80;;;36.80;1.00;;;;;;5010214;28;20179;-75
2022/06/25 10:23:04;;;;;;;2.88;1.90;;;37.50;1.00;;;;;;4991308;28;20225;-76
2022/06/25 10:25:30;;;;;;;2.90;1.80;;;38.00;1.00;;;;;;4991260;28;20194;-76
2022/06/25 10:28:10;;;;;;;8.27;2.30;;;38.50;1.00;;;;;;5009670;28;20175;-76
2022/06/25 10:30:58;;;;;;;3.92;1.90;;;37.00;1.00;;;;;;5008309;28;20177;-75
2022/06/25 10:33:28;;;;;;;7.10;2.10;;;35.50;1.00;;;;;;4991167;28;20186;-75
2022/06/25 10:35:59;;;;;;;3.13;1.83;;;36.00;1.00;;;;;;5009070;28;20257;-76
2022/06/25 10:38:27;;;;;;;3.63;2.10;;;37.00;1.00;;;;;;5005665;28;20292;-75
2022/06/25 10:40:58;;;;;;;4.28;1.98;;;37.10;1.00;;;;;;5009525;28;20177;-74
2022/06/25 10:43:45;;;;;;;4.68;1.85;;;36.80;1.00;;;;;;5029383;28;20165;-75
2022/06/25 10:46:25;;;;;;;3.60;1.67;;;36.90;1.00;;;;;;4971378;28;20609;-75
2022/06/25 10:49:11;;;;;;;4.68;1.90;;;37.70;1.00;;;;;;4989985;28;20264;-75
2022/06/25 10:51:46;;;;;;;2.72;1.60;;;38.30;1.00;;;;;;4988644;28;20548;-75
2022/06/25 10:54:22;;;;;;;3.33;1.67;;;37.50;1.00;;;;;;5006580;28;20202;-74
2022/06/25 10:57:00;;;;;;;3.47;2.05;;;36.00;1.00;;;;;;5009107;28;20176;-75
2022/06/25 10:59:31;;;;;;;4.78;1.90;;;35.60;1.00;;;;;;5008593;28;20201;-75
2022/06/25 11:01:58;;;;;;;5.70;1.83;;;36.90;1.00;;;;;;5007933;28;20197;-76
2022/06/25 11:04:29;;;;;;;3.42;1.75;;;37.10;1.00;;;;;;4989871;28;20213;-76
2022/06/25 11:07:32;;;;;;;3.30;1.67;;;36.80;1.00;;;;;;5007030;28;20190;-75
2022/06/25 11:10:00;;;;;;;2.90;1.90;;;35.90;1.00;;;;;;4919475;29;20436;-77
2022/06/25 11:12:28;;;;;;;4.28;1.90;;;36.40;1.00;;;;;;5004918;28;20189;-77
2022/06/25 11:15:00;;;;;;;3.65;1.80;;;37.60;1.00;;;;;;5009555;28;20556;-76
2022/06/25 11:17:25;;;;;;;3.95;1.70;;;38.10;1.00;;;;;;5008190;28;20181;-75
2022/06/25 11:19:51;;;;;;;2.75;1.55;;;38.00;1.00;;;;;;5008510;28;20177;-75
2022/06/25 11:22:17;;;;;;;7.45;1.90;;;38.20;1.00;;;;;;5003908;28;20195;-75
2022/06/25 11:28:47;;;;;;;3.33;1.95;;;38.60;1.00;;;;;;4986954;28;20579;-75
2022/06/25 11:30:14;;;;;;;2.70;1.85;;;38.50;1.00;;;;;;5004015;28;20710;-75
2022/06/25 11:32:47;;;;;;;3.05;1.73;;;38.20;1.00;;;;;;5023170;28;20597;-75
2022/06/25 11:35:13;;;;;;;2.83;1.80;;;37.50;1.00;;;;;;5027916;28;20623;-75
2022/06/25 11:37:38;;;;;;;2.95;1.95;;;37.00;1.00;;;;;;5010369;28;20268;-75
2022/06/25 11:40:13;;;;;;;2.58;1.80;;;37.20;1.00;;;;;;5008612;28;20252;-75
2022/06/25 11:42:39;;;;;;;2.80;1.50;;;36.90;1.00;;;;;;5027958;28;20200;-75
2022/06/25 11:45:06;;;;;;;2.65;1.85;;;36.80;1.00;;;;;;5007112;28;20233;-75
2022/06/25 11:47:31;;;;;;;2.75;1.45;;;37.90;1.00;;;;;;5008584;28;20174;-75
2022/06/25 11:49:57;;;;;;;2.28;1.52;;;38.40;1.00;;;;;;5008402;28;20192;-75
2022/06/25 11:52:25;;;;;;;2.60;1.77;;;38.50;1.00;;;;;;5006983;28;20189;-75
2022/06/25 11:54:52;;;;;;;3.95;1.70;;;37.80;1.00;;;;;;5007488;28;20664;-75
2022/06/25 11:57:21;;;;;;;2.67;1.50;;;36.30;1.00;;;;;;4982271;28;20490;-74
2022/06/25 11:59:48;;;;;;;2.45;1.60;;;34.80;1.00;;;;;;5008459;28;20174;-75
2022/06/25 12:02:13;;;;;;;3.95;1.73;;;34.80;1.00;;;;;;4991064;28;20180;-75
2022/06/25 12:04:57;;;;;;;3.20;1.52;;;36.30;1.00;;;;;;5010151;28;20190;-74
2022/06/25 12:07:25;;;;;;;2.65;1.77;;;36.10;1.00;;;;;;5011583;28;20181;-74
2022/06/25 12:09:53;;;;;;;3.20;1.73;;;35.10;1.00;;;;;;5019408;28;20165;-76
2022/06/25 12:12:19;;;;;;;2.72;1.80;;;34.30;1.00;;;;;;5009350;28;20174;-75
2022/06/25 12:14:49;;;;;;;2.30;1.50;;;34.10;1.00;;;;;;5000971;28;20572;-75
2022/06/25 12:17:15;;;;;;;3.22;1.80;;;35.70;1.00;;;;;;5003887;28;20258;-75
2022/06/25 12:19:46;;;;;;;3.40;1.70;;;38.10;1.00;;;;;;5017088;28;20263;-76
2022/06/25 12:22:21;;;;;;;3.45;1.73;;;40.00;1.00;;;;;;5027039;28;20162;-75
2022/06/25 12:24:48;;;;;;;2.30;1.50;;;41.60;1.00;;;;;;5027323;28;20189;-75
2022/06/25 12:27:13;;;;;;;2.63;1.60;;;42.60;1.00;;;;;;5028127;28;20565;-75
2022/06/25 12:29:39;;;;;;;3.30;1.40;;;41.70;1.00;;;;;;5011799;28;20184;-75
2022/06/25 12:32:04;;;;;;;2.83;1.60;;;39.70;1.00;;;;;;5007415;28;20192;-75
2022/06/25 12:34:30;;;;;;;4.40;1.90;;;37.20;1.00;;;;;;5016107;28;20217;-76
2022/06/25 12:36:56;;;;;;;2.97;1.80;;;36.10;1.00;;;;;;5018398;28;20259;-75
2022/06/25 12:39:28;;;;;;;3.90;1.70;;;36.30;1.00;;;;;;5006860;28;20233;-75
2022/06/25 12:41:54;;;;;;;3.90;1.90;;;37.30;1.00;;;;;;5026171;28;20178;-75
2022/06/25 12:44:20;;;;;;;2.83;1.90;;;38.90;1.00;;;;;;5008088;28;20222;-75
2022/06/25 12:47:03;;;;;;;5.20;1.63;;;39.80;1.00;;;;;;4990920;28;20239;-75
2022/06/25 12:49:46;;;;;;;3.55;1.73;;;40.50;1.00;;;;;;5012778;28;20178;-75
2022/06/25 12:52:13;;;;;;;2.28;1.50;;;41.10;1.00;;;;;;5007665;28;20597;-75
2022/06/25 12:54:43;;;;;;;3.75;1.70;;;41.20;1.00;;;;;;5015877;28;20200;-75
2022/06/25 12:57:09;;;;;;;3.20;1.77;;;41.00;1.00;;;;;;5010497;28;20181;-75
2022/06/25 12:59:35;;;;;;;2.47;1.58;;;39.50;1.00;;;;;;5022890;28;20734;-76
2022/06/25 13:02:00;;;;;;;3.30;1.70;;;38.10;1.00;;;;;;5002009;28;20662;-75
2022/06/25 13:04:26;;;;;;;2.75;1.85;;;36.80;1.00;;;;;;5026109;28;20271;-75
2022/06/25 13:06:51;;;;;;;3.40;1.80;;;37.50;1.00;;;;;;5011989;28;20667;-75
2022/06/25 13:09:17;;;;;;;2.75;1.70;;;38.90;1.00;;;;;;5017972;28;20261;-75
2022/06/25 13:11:42;;;;;;;3.00;1.60;;;40.10;1.00;;;;;;5022024;28;20178;-75
2022/06/25 13:14:08;;;;;;;2.75;1.60;;;39.20;1.00;;;;;;5010341;28;20576;-76
2022/06/25 13:16:33;;;;;;;2.50;1.80;;;37.70;1.00;;;;;;5011000;28;20170;-75
2022/06/25 13:18:59;;;;;;;2.67;1.67;;;36.30;1.00;;;;;;5017075;28;20205;-74
2022/06/25 13:21:25;;;;;;;3.97;1.70;;;36.40;1.00;;;;;;5020824;28;20276;-74
2022/06/25 13:23:50;;;;;;;2.50;1.50;;;38.30;1.00;;;;;;5003510;28;20204;-75
2022/06/25 13:26:16;;;;;;;2.20;1.60;;;40.10;1.00;;;;;;4998261;28;20200;-75
2022/06/25 13:28:41;;;;;;;7.10;2.00;;;41.70;1.00;;;;;;5017250;28;20186;-75
2022/06/25 13:31:07;;;;;;;3.53;2.08;;;41.90;1.00;;;;;;5021814;28;20188;-74
2022/06/25 13:33:33;;;;;;;2.88;1.80;;;39.50;1.00;;;;;;5031549;28;20315;-76
2022/06/25 13:36:00;;;;;;;3.10;1.65;;;36.90;1.00;;;;;;5016749;28;20186;-76
2022/06/25 13:38:26;;;;;;;2.80;1.80;;;34.80;1.00;;;;;;5019825;28;20262;-74
2022/06/25 13:40:51;;;;;;;7.72;1.92;;;34.70;1.00;;;;;;5016526;28;20548;-74
2022/06/25 13:43:17;;;;;;;3.60;1.80;;;35.20;1.00;;;;;;5020544;28;20186;-74
2022/06/25 13:45:42;;;;;;;3.38;1.95;;;35.30;1.00;;;;;;5026844;28;20182;-75
2022/06/25 13:48:08;;;;;;;2.15;1.52;;;37.30;1.00;;;;;;5017771;28;20489;-75
2022/06/25 13:50:34;;;;;;;2.95;1.77;;;39.70;1.00;;;;;;5018152;28;20568;-75
2022/06/25 13:52:59;;;;;;;2.97;1.75;;;41.30;1.00;;;;;;5021245;28;20189;-75
2022/06/25 13:55:25;;;;;;;3.08;1.67;;;42.00;1.00;;;;;;5009688;28;20687;-76
2022/06/25 13:57:50;;;;;;;5.43;1.83;;;42.30;1.00;;;;;;4992509;28;20193;-75
2022/06/25 14:00:16;;;;;;;3.15;2.13;;;42.50;1.00;;;;;;5009363;28;20189;-75
2022/06/25 14:02:41;;;;;;;3.75;2.00;;;43.10;1.00;;;;;;5009283;28;20230;-75
2022/06/25 14:05:07;;;;;;;2.50;1.73;;;42.80;1.00;;;;;;4993941;28;20255;-76
2022/06/25 14:07:33;;;;;;;4.43;2.30;;;42.30;1.00;;;;;;5022011;28;20177;-75
2022/06/25 14:09:58;;;;;;;2.50;1.70;;;41.30;1.00;;;;;;5022320;28;20204;-74
2022/06/25 14:12:24;;;;;;;4.10;2.28;;;41.20;1.00;;;;;;5019206;28;20172;-75
2022/06/25 14:14:50;;;;;;;3.00;1.80;;;40.10;1.00;;;;;;5008811;28;20914;-75
2022/06/25 14:17:15;;;;;;;3.97;1.73;;;38.80;1.00;;;;;;5009835;28;20188;-75
2022/06/25 14:19:41;;;;;;;2.67;1.73;;;38.70;1.00;;;;;;5001617;28;20206;-74
2022/06/25 14:22:07;;;;;;;2.95;1.75;;;39.30;1.00;;;;;;5013752;28;20213;-75